עמוד ראשי
METAR-TAF:

METAR-TAF

שדות תעופה :

Hernando County Airport

Brooksville, פלורידה, ארצות הברית

קו רוחב: 28-28-25N, קו אורך: 082-27-16W, גובה: 23מטר

תצפית מזג אוויר נוכחית

הדו"ח נערך לפני 58דקות, בשעה 16:53 UTC
רוח 11קשר מכיוון מזרח עם משבים עד 21קשר
טמפרטורת 31 צלסיוס
לחות 66%
לחץ 1018 hPa
ראות: 16.1קילומטר
עננים פזורים בגובה 4500רגל

METAR: KBKV 171653Z 09011G21KT 10SM SCT045 31/24 A3005 RMK AO2 PK WND 07030/1612 SLP174 T03060239 $

זמן: 13:51 (17:51 UTC)


TAF: חסר

תצפיות ותחזיות מזג אוויר לגבי יותר מ- 4,000 שדות תעופה ברחבי העולם. דוחות METAR ו- TAF.

התחנות הזמינות מסומנות בנקודות צהובות ואדומות על גבי המפה.

העבר את העכבר לנקודה הצבעונית על מנת לראות את שם התחנה.

לאחר מכן, לחץ כדי לראות את תוכן ואת תחזיות מזג האוויר.

כדי לשנות את המפה: לחץ על הכפתורים הירוקים עם הפלוס השחור כדי להתקרב; על הכפתור הירוק עם המקף כדי להתרחק; או בחיצים הירוקים למפות סמוכות.


METAR-TAF: